Terminal Aerodrome Forecast
Issued by NWS

Current Version | Previous Version | Graphics & Text | Print | Product List | Glossary On
Versions: 1 2 3 4 5 6 7 8 9 10 11 12 13 14 15 16 17
000
FTUS41 KPBZ 171100
TAFHLG
TAF
KHLG 171124Z 1712/1812 VRB03KT P6SM SCT050
      TEMPO 1712/1713 3SM BR=

USA.gov is the U.S. government's official web portal to all federal, state and local government web resources and services.